createdAt,value
2022-09-24T00:02:18.355Z,12.00
2022-09-24T00:04:46.534Z,8.75
2022-09-24T00:07:16.100Z,8.50
2022-09-24T00:09:44.595Z,4.00
2022-09-24T00:12:13.408Z,12.00
2022-09-24T00:14:41.860Z,8.00
2022-09-24T00:17:10.052Z,9.75
2022-09-24T00:19:38.962Z,8.00
2022-09-24T00:22:07.190Z,8.50
2022-09-24T00:24:54.261Z,10.50
2022-09-24T00:27:22.499Z,7.50
2022-09-24T00:29:50.656Z,10.25
2022-09-24T00:32:18.918Z,7.25
2022-09-24T00:34:47.892Z,7.75
2022-09-24T00:37:16.037Z,7.75
2022-09-24T00:39:45.927Z,9.00
2022-09-24T00:42:14.054Z,10.00
2022-09-24T00:44:54.484Z,12.75
2022-09-24T00:47:40.205Z,10.75
2022-09-24T00:50:15.956Z,7.00
2022-09-24T00:52:45.631Z,9.00
2022-09-24T00:55:15.499Z,10.50
2022-09-24T00:57:45.051Z,8.25
2022-09-24T01:00:13.829Z,8.25
2022-09-24T01:02:45.267Z,9.50
2022-09-24T01:05:13.802Z,2.00
2022-09-24T01:07:45.385Z,10.00
2022-09-24T01:10:13.530Z,9.75
2022-09-24T01:12:52.145Z,9.00
2022-09-24T01:15:25.879Z,8.50
2022-09-24T01:17:57.362Z,7.50
2022-09-24T01:20:41.528Z,9.00
2022-09-24T01:23:16.864Z,8.00
2022-09-24T01:25:52.229Z,5.75
2022-09-24T01:28:31.129Z,8.25
2022-09-24T01:31:02.966Z,7.25
2022-09-24T01:33:33.507Z,8.75
2022-09-24T01:36:07.007Z,11.00
2022-09-24T01:38:44.145Z,12.75
2022-09-24T01:41:13.800Z,10.50
2022-09-24T01:43:42.091Z,10.00
2022-09-24T01:46:13.693Z,8.25
2022-09-24T01:48:42.440Z,8.00
2022-09-24T01:51:13.393Z,9.75
2022-09-24T01:53:45.114Z,8.00
2022-09-24T01:56:17.293Z,9.25
2022-09-24T01:58:49.927Z,5.00
2022-09-24T02:01:23.254Z,4.50
2022-09-24T02:03:54.849Z,5.00
2022-09-24T02:06:26.298Z,4.25
2022-09-24T02:08:58.093Z,7.25
2022-09-24T02:11:28.197Z,5.50
2022-09-24T02:14:00.938Z,8.00
2022-09-24T02:16:31.947Z,5.50
2022-09-24T02:19:01.923Z,4.25
2022-09-24T02:21:30.594Z,6.75
2022-09-24T02:24:01.403Z,3.00
2022-09-24T02:26:30.126Z,4.75
2022-09-24T02:28:59.280Z,3.50
2022-09-24T02:31:30.919Z,2.00
2022-09-24T02:34:19.643Z,4.00
2022-09-24T02:36:48.220Z,1.00
2022-09-24T02:39:17.548Z,4.50
2022-09-24T02:41:47.909Z,1.00
2022-09-24T02:44:16.676Z,4.00
2022-09-24T02:46:45.423Z,2.00
2022-09-24T02:49:15.359Z,2.00
2022-09-24T02:51:43.881Z,2.00
2022-09-24T02:54:12.208Z,2.50
2022-09-24T02:56:40.820Z,2.67
2022-09-24T02:59:09.192Z,4.00
2022-09-24T03:01:37.855Z,2.00
2022-09-24T03:04:06.693Z,2.50
2022-09-24T03:06:36.888Z,0.75
2022-09-24T03:09:05.662Z,1.75
2022-09-24T03:11:34.145Z,1.50
2022-09-24T03:14:12.015Z,1.00
2022-09-24T03:16:46.661Z,1.00
2022-09-24T03:19:15.670Z,1.50
2022-09-24T03:21:48.398Z,1.00
2022-09-24T03:24:17.132Z,1.00
2022-09-24T03:26:46.941Z,2.00
2022-09-24T03:29:15.202Z,2.00
2022-09-24T03:31:45.479Z,1.50
2022-09-24T03:34:13.760Z,1.00
2022-09-24T03:36:43.233Z,1.75
2022-09-24T03:39:12.777Z,0.00
2022-09-24T03:41:45.707Z,1.50
2022-09-24T03:44:13.985Z,3.50
2022-09-24T03:46:47.237Z,2.00
2022-09-24T03:49:15.402Z,1.50
2022-09-24T03:51:47.053Z,2.00
2022-09-24T03:54:18.269Z,1.50
2022-09-24T03:56:49.288Z,1.00
2022-09-24T03:59:17.824Z,1.00
2022-09-24T04:01:45.918Z,1.25
2022-09-24T04:04:15.704Z,1.75
2022-09-24T04:07:08.966Z,2.00
2022-09-24T04:09:38.748Z,1.25
2022-09-24T04:12:13.642Z,1.00
2022-09-24T04:15:06.873Z,0.00
2022-09-24T04:17:37.841Z,1.75
2022-09-24T04:20:09.412Z,0.00
2022-09-24T04:22:37.665Z,0.00
2022-09-24T04:25:14.617Z,1.00
2022-09-24T04:27:54.114Z,1.00
2022-09-24T04:30:23.004Z,0.00
2022-09-24T04:32:51.730Z,1.00
2022-09-24T04:35:21.217Z,1.25
2022-09-24T04:37:50.062Z,0.25
2022-09-24T04:40:20.179Z,1.75
2022-09-24T04:42:52.737Z,0.00
2022-09-24T04:45:25.657Z,0.00
2022-09-24T04:47:59.836Z,0.00
2022-09-24T04:50:34.787Z,0.50
2022-09-24T04:53:03.925Z,0.00
2022-09-24T04:55:37.924Z,0.75
2022-09-24T04:58:06.213Z,0.00
2022-09-24T05:00:34.494Z,0.50
2022-09-24T05:03:04.861Z,0.00
2022-09-24T05:05:33.676Z,1.00
2022-09-24T05:08:06.469Z,0.00
2022-09-24T05:10:36.642Z,0.00
2022-09-24T05:13:05.800Z,1.00
2022-09-24T05:15:34.230Z,1.00
2022-09-24T05:18:03.089Z,1.00
2022-09-24T05:20:32.160Z,0.00
2022-09-24T05:23:00.438Z,0.25
2022-09-24T05:25:28.826Z,1.00
2022-09-24T05:27:57.339Z,0.00
2022-09-24T05:30:26.459Z,0.00
2022-09-24T05:32:55.391Z,0.25
2022-09-24T05:35:24.643Z,1.00
2022-09-24T05:37:54.810Z,0.25
2022-09-24T05:40:46.012Z,0.50
2022-09-24T05:43:19.363Z,1.00
2022-09-24T05:45:50.751Z,0.25
2022-09-24T05:48:26.547Z,0.00
2022-09-24T05:51:25.108Z,0.00
2022-09-24T05:54:13.162Z,0.00
2022-09-24T05:56:44.737Z,0.00
2022-09-24T05:59:18.460Z,0.00
2022-09-24T06:01:46.821Z,0.25
2022-09-24T06:04:16.244Z,0.00
2022-09-24T06:06:45.491Z,0.00
2022-09-24T06:09:15.086Z,0.00
2022-09-24T06:11:44.807Z,1.00
2022-09-24T06:14:19.037Z,0.00
2022-09-24T06:16:47.412Z,0.00
2022-09-24T06:19:15.849Z,0.50
2022-09-24T06:21:44.350Z,0.00
2022-09-24T06:24:43.069Z,0.00
2022-09-24T06:27:15.489Z,0.00
2022-09-24T06:29:48.251Z,0.00
2022-09-24T06:32:18.963Z,0.00
2022-09-24T06:34:49.969Z,0.25
2022-09-24T06:37:18.550Z,0.00
2022-09-24T06:39:50.879Z,0.00
2022-09-24T06:42:20.918Z,0.00
2022-09-24T06:44:53.881Z,0.00
2022-09-24T06:47:24.465Z,0.00
2022-09-24T06:49:52.996Z,0.00
2022-09-24T06:52:23.628Z,0.00
2022-09-24T06:54:56.132Z,0.00
2022-09-24T06:57:30.470Z,0.00
2022-09-24T07:00:00.652Z,0.00
2022-09-24T07:02:31.510Z,0.00
2022-09-24T07:05:01.325Z,0.00
2022-09-24T07:07:33.265Z,0.00
2022-09-24T07:10:04.961Z,0.00
2022-09-24T07:12:35.275Z,0.00
2022-09-24T07:15:07.576Z,0.00
2022-09-24T07:17:36.319Z,0.00
2022-09-24T07:20:05.439Z,0.00
2022-09-24T07:22:34.510Z,0.00
2022-09-24T07:25:08.691Z,0.00
2022-09-24T07:27:45.594Z,0.00
2022-09-24T07:30:16.691Z,0.25
2022-09-24T07:33:10.259Z,0.00
2022-09-24T07:35:49.954Z,0.00
2022-09-24T07:38:25.545Z,0.00
2022-09-24T07:41:01.465Z,0.00
2022-09-24T07:43:33.556Z,0.00
2022-09-24T07:46:03.790Z,0.00
2022-09-24T07:48:34.650Z,0.50
2022-09-24T07:51:13.124Z,1.00
2022-09-24T07:53:55.290Z,0.00
2022-09-24T07:56:29.530Z,0.00
2022-09-24T07:59:01.379Z,0.00
2022-09-24T08:02:02.673Z,0.00
2022-09-24T08:04:33.354Z,0.00
2022-09-24T08:07:09.923Z,0.00
2022-09-24T08:09:39.369Z,0.00
2022-09-24T08:12:08.874Z,0.00
2022-09-24T08:14:54.375Z,1.00
2022-09-24T08:17:25.330Z,0.00
2022-09-24T08:19:58.851Z,0.00
2022-09-24T08:22:36.332Z,0.00
2022-09-24T08:25:06.883Z,1.25
2022-09-24T08:27:40.771Z,0.00
2022-09-24T08:30:12.715Z,0.00
2022-09-24T08:33:14.495Z,0.00
2022-09-24T08:35:49.741Z,0.00
2022-09-24T08:38:21.236Z,1.00
2022-09-24T08:40:54.831Z,0.75
2022-09-24T08:43:29.771Z,1.50
2022-09-24T08:46:18.512Z,2.00
2022-09-24T08:49:12.650Z,1.50
2022-09-24T08:51:51.395Z,1.50
2022-09-24T08:54:20.806Z,1.00
2022-09-24T08:56:51.903Z,1.00
2022-09-24T08:59:26.388Z,0.00
2022-09-24T09:01:57.474Z,2.00
2022-09-24T09:04:28.443Z,0.00
2022-09-24T09:07:09.856Z,0.00
2022-09-24T09:10:04.399Z,1.00
2022-09-24T09:12:36.822Z,1.00
2022-09-24T09:15:08.374Z,1.00
2022-09-24T09:17:42.902Z,0.25
2022-09-24T09:20:19.205Z,1.75
2022-09-24T09:22:52.007Z,1.25
2022-09-24T09:25:23.949Z,1.25
2022-09-24T09:27:54.702Z,1.00
2022-09-24T09:30:24.273Z,1.00
2022-09-24T09:33:01.669Z,1.00
2022-09-24T09:35:38.440Z,0.00
2022-09-24T09:38:19.800Z,1.00
2022-09-24T09:40:54.823Z,0.00
2022-09-24T09:43:23.850Z,0.00
2022-09-24T09:45:58.321Z,0.00
2022-09-24T09:48:30.301Z,0.75
2022-09-24T09:51:04.165Z,1.00
2022-09-24T09:53:36.626Z,2.00
2022-09-24T09:56:06.638Z,1.25
2022-09-24T09:58:37.736Z,1.00
2022-09-24T10:01:09.249Z,0.00
2022-09-24T10:03:49.831Z,1.25
2022-09-24T10:06:24.946Z,0.00
2022-09-24T10:08:56.157Z,0.50
2022-09-24T10:11:25.003Z,0.75
2022-09-24T10:14:03.746Z,0.25
2022-09-24T10:16:51.226Z,0.75
2022-09-24T10:19:22.493Z,1.25
2022-09-24T10:21:52.128Z,1.00
2022-09-24T10:24:25.711Z,0.00
2022-09-24T10:26:56.872Z,1.00
2022-09-24T10:29:47.527Z,1.00
2022-09-24T10:32:22.373Z,1.50
2022-09-24T10:34:58.962Z,2.00
2022-09-24T10:37:28.112Z,0.25
2022-09-24T10:40:02.993Z,0.00
2022-09-24T10:42:32.367Z,0.25
2022-09-24T10:45:10.044Z,1.00
2022-09-24T10:47:44.926Z,1.75
2022-09-24T10:50:25.553Z,0.50
2022-09-24T10:52:56.390Z,0.50
2022-09-24T10:55:57.552Z,2.00
2022-09-24T10:58:36.542Z,0.00
2022-09-24T11:01:11.498Z,4.00
2022-09-24T11:03:55.791Z,2.00
2022-09-24T11:06:44.821Z,0.50
2022-09-24T11:09:19.007Z,0.50
2022-09-24T11:11:57.357Z,1.00
2022-09-24T11:14:37.208Z,0.75
2022-09-24T11:17:26.079Z,1.25
2022-09-24T11:20:11.398Z,1.50
2022-09-24T11:22:53.104Z,1.00
2022-09-24T11:25:30.016Z,1.00
2022-09-24T11:28:19.879Z,1.00
2022-09-24T11:30:58.742Z,2.00
2022-09-24T11:33:32.792Z,1.00
2022-09-24T11:36:17.966Z,1.00
2022-09-24T11:39:01.854Z,2.00
2022-09-24T11:41:47.196Z,1.00
2022-09-24T11:44:28.270Z,1.00
2022-09-24T11:47:07.859Z,2.00
2022-09-24T11:49:46.519Z,0.00
2022-09-24T11:52:23.729Z,1.00
2022-09-24T11:54:58.960Z,1.00
2022-09-24T11:57:30.595Z,0.00
2022-09-24T12:00:05.438Z,1.00
2022-09-24T12:02:37.231Z,0.75
2022-09-24T12:05:08.529Z,0.00
2022-09-24T12:07:40.695Z,0.50
2022-09-24T12:10:20.853Z,0.00
2022-09-24T12:12:55.378Z,0.50
2022-09-24T12:15:31.290Z,0.00
2022-09-24T12:18:03.766Z,0.00
2022-09-24T12:20:56.988Z,0.00
2022-09-24T12:23:32.727Z,1.00
2022-09-24T12:26:04.168Z,1.00
2022-09-24T12:29:01.521Z,1.00
2022-09-24T12:31:57.220Z,1.00
2022-09-24T12:34:28.634Z,0.25
2022-09-24T12:37:01.175Z,0.00
2022-09-24T12:39:38.261Z,0.00
2022-09-24T12:42:09.304Z,0.00
2022-09-24T12:44:43.280Z,0.75
2022-09-24T12:47:21.791Z,1.00
2022-09-24T12:49:56.160Z,0.00
2022-09-24T12:52:32.579Z,1.25
2022-09-24T12:55:06.638Z,0.00
2022-09-24T12:57:37.947Z,1.00
2022-09-24T13:00:29.512Z,1.00
2022-09-24T13:03:00.393Z,1.25
2022-09-24T13:05:32.652Z,0.25
2022-09-24T13:08:02.189Z,1.00
2022-09-24T13:10:32.169Z,2.00
2022-09-24T13:13:01.995Z,0.75
2022-09-24T13:15:37.176Z,1.25
2022-09-24T13:18:16.742Z,0.50
2022-09-24T13:20:55.997Z,0.50
2022-09-24T13:24:03.148Z,1.00
2022-09-24T13:26:35.587Z,0.00
2022-09-24T13:29:11.310Z,0.00
2022-09-24T13:31:58.057Z,0.50
2022-09-24T13:34:32.361Z,0.75
2022-09-24T13:37:03.877Z,0.00
2022-09-24T13:39:37.017Z,0.00
2022-09-24T13:42:08.307Z,0.00
2022-09-24T13:44:38.180Z,0.00
2022-09-24T13:47:22.514Z,1.00
2022-09-24T13:49:53.764Z,0.75
2022-09-24T13:52:30.391Z,0.00
2022-09-24T13:55:22.708Z,0.00
2022-09-24T13:57:51.935Z,0.00
2022-09-24T14:00:31.711Z,0.00
2022-09-24T14:03:03.234Z,0.00
2022-09-24T14:06:02.973Z,0.75
2022-09-24T14:08:35.919Z,1.00
2022-09-24T14:11:19.012Z,0.50
2022-09-24T14:13:58.265Z,0.75
2022-09-24T14:16:28.422Z,0.00
2022-09-24T14:19:04.617Z,0.25
2022-09-24T14:21:43.509Z,0.00
2022-09-24T14:27:13.076Z,1.00
2022-09-24T14:29:49.109Z,0.00
2022-09-24T14:32:25.239Z,0.25
2022-09-24T14:34:55.794Z,0.50
2022-09-24T14:37:28.544Z,1.00
2022-09-24T14:40:02.979Z,1.00
2022-09-24T14:42:35.275Z,0.75
2022-09-24T14:45:06.673Z,0.00
2022-09-24T14:47:47.205Z,0.00
2022-09-24T14:50:30.099Z,1.00
2022-09-24T14:53:02.066Z,0.00
2022-09-24T14:55:38.441Z,0.00
2022-09-24T14:58:07.539Z,1.00
2022-09-24T15:00:48.145Z,0.00
2022-09-24T15:03:19.030Z,0.00
2022-09-24T15:05:48.351Z,0.50
2022-09-24T15:08:27.785Z,0.00
2022-09-24T15:10:57.229Z,0.00
2022-09-24T15:13:27.490Z,0.00
2022-09-24T15:16:07.790Z,0.00
2022-09-24T15:18:39.623Z,0.00
2022-09-24T15:21:11.494Z,0.00
2022-09-24T15:23:59.987Z,1.00
2022-09-24T15:26:30.339Z,0.00
2022-09-24T15:29:01.199Z,1.00
2022-09-24T15:31:30.561Z,0.00
2022-09-24T15:34:00.980Z,0.00
2022-09-24T15:36:38.260Z,0.25
2022-09-24T15:39:12.376Z,3.00
2022-09-24T15:41:42.945Z,6.50
2022-09-24T15:44:16.461Z,2.00
2022-09-24T15:46:45.942Z,0.00
2022-09-24T15:50:03.165Z,1.00
2022-09-24T15:52:33.442Z,0.00
2022-09-24T15:55:04.090Z,0.00
2022-09-24T15:57:32.710Z,0.00
2022-09-24T16:00:01.843Z,1.00
2022-09-24T16:02:47.383Z,1.50
2022-09-24T16:05:23.157Z,1.00
2022-09-24T16:08:07.157Z,2.50
2022-09-24T16:11:09.169Z,3.50
2022-09-24T16:13:42.662Z,1.75
2022-09-24T16:16:13.572Z,6.50
2022-09-24T16:19:36.312Z,3.50
2022-09-24T16:22:06.124Z,2.00
2022-09-24T16:24:37.156Z,1.50
2022-09-24T16:27:18.531Z,1.00
2022-09-24T16:30:14.474Z,0.00
2022-09-24T16:36:59.006Z,0.00
2022-09-24T16:39:28.569Z,0.00
2022-09-24T16:42:31.968Z,0.00
2022-09-24T16:45:01.341Z,0.00
2022-09-24T16:47:33.760Z,0.00
2022-09-24T16:50:09.158Z,0.00
2022-09-24T16:56:27.499Z,0.00
2022-09-24T16:59:37.323Z,0.00
2022-09-24T17:06:24.295Z,0.00
2022-09-24T17:09:15.281Z,0.50
2022-09-24T17:12:00.111Z,1.50
2022-09-24T17:14:29.066Z,1.00
2022-09-24T17:17:02.573Z,0.00
2022-09-24T17:19:33.784Z,0.00
2022-09-24T17:22:03.853Z,0.75
2022-09-24T17:24:40.057Z,1.00
2022-09-24T17:27:09.167Z,4.25
2022-09-24T17:29:37.975Z,4.00
2022-09-24T17:32:13.736Z,1.00
2022-09-24T17:34:48.220Z,1.00
2022-09-24T17:37:22.188Z,1.00
2022-09-24T17:39:53.581Z,1.00
2022-09-24T17:42:24.177Z,2.00
2022-09-24T17:45:20.714Z,5.50
2022-09-24T17:47:58.774Z,8.50
2022-09-24T17:50:33.284Z,4.00
2022-09-24T17:53:03.985Z,3.25
2022-09-24T17:55:34.860Z,6.25
2022-09-24T17:58:06.372Z,7.25
2022-09-24T18:00:35.414Z,8.75
2022-09-24T18:03:04.650Z,7.75
2022-09-24T18:05:38.445Z,2.50
2022-09-24T18:08:09.613Z,7.50
2022-09-24T18:10:39.001Z,8.00
2022-09-24T18:13:07.649Z,6.00
2022-09-24T18:15:37.776Z,5.50
2022-09-24T18:18:07.400Z,9.00
2022-09-24T18:20:37.677Z,5.25
2022-09-24T18:23:07.226Z,8.00
2022-09-24T18:25:39.096Z,6.75
2022-09-24T18:28:09.654Z,4.50
2022-09-24T18:30:38.575Z,0.75
2022-09-24T18:33:07.660Z,8.50
2022-09-24T18:35:36.401Z,8.50
2022-09-24T18:38:04.836Z,6.00
2022-09-24T18:40:33.698Z,5.25
2022-09-24T18:43:05.779Z,7.00
2022-09-24T18:45:36.769Z,6.50
2022-09-24T18:48:07.744Z,4.00
2022-09-24T18:50:38.209Z,9.25
2022-09-24T18:53:07.062Z,9.75
2022-09-24T18:55:41.251Z,8.50
2022-09-24T18:58:13.731Z,6.00
2022-09-24T19:00:51.295Z,5.50
2022-09-24T19:03:19.895Z,5.50
2022-09-24T19:05:52.196Z,16.00
2022-09-24T19:08:22.251Z,10.75
2022-09-24T19:10:54.387Z,7.75
2022-09-24T19:13:26.570Z,3.50
2022-09-24T19:15:55.611Z,4.00
2022-09-24T19:18:24.329Z,6.00
2022-09-24T19:20:53.537Z,11.00
2022-09-24T19:23:22.704Z,9.00
2022-09-24T19:25:54.652Z,8.50
2022-09-24T19:28:25.654Z,9.25
2022-09-24T19:30:55.471Z,9.00
2022-09-24T19:33:24.043Z,13.00
2022-09-24T19:35:56.600Z,7.25
2022-09-24T19:38:26.166Z,7.25
2022-09-24T19:41:02.956Z,6.25
2022-09-24T19:47:20.197Z,2.00
2022-09-24T19:49:58.591Z,0.50
2022-09-24T19:52:30.250Z,1.50
2022-09-24T19:55:03.806Z,0.75
2022-09-24T20:01:42.464Z,2.25
2022-09-24T20:04:18.287Z,1.75
2022-09-24T20:06:48.523Z,4.25
2022-09-24T20:09:19.978Z,2.25
2022-09-24T20:11:50.751Z,3.25
2022-09-24T20:14:21.418Z,2.00
2022-09-24T20:16:51.743Z,2.50
2022-09-24T20:19:22.392Z,5.00
2022-09-24T20:21:52.616Z,7.25
2022-09-24T20:24:21.158Z,9.00
2022-09-24T20:27:06.831Z,9.00
2022-09-24T20:29:38.308Z,7.00
2022-09-24T20:32:34.056Z,9.75
2022-09-24T20:35:04.070Z,10.00
2022-09-24T20:37:32.448Z,11.00
2022-09-24T20:40:00.831Z,10.00
2022-09-24T20:42:29.218Z,11.50
2022-09-24T20:45:02.445Z,13.75
2022-09-24T20:47:33.898Z,11.75
2022-09-24T20:50:05.063Z,10.75
2022-09-24T20:52:33.546Z,11.25
2022-09-24T20:55:02.526Z,10.00
2022-09-24T20:57:31.535Z,10.00
2022-09-24T21:00:02.404Z,10.75
2022-09-24T21:02:32.355Z,4.00
2022-09-24T21:05:01.284Z,9.25
2022-09-24T21:07:36.137Z,10.25
2022-09-24T21:10:04.801Z,10.00
2022-09-24T21:12:33.135Z,6.50
2022-09-24T21:15:01.456Z,9.00
2022-09-24T21:18:23.310Z,1.25
2022-09-24T21:20:53.467Z,10.75
2022-09-24T21:23:25.109Z,9.00
2022-09-24T21:25:55.548Z,5.75
2022-09-24T21:28:24.390Z,6.50
2022-09-24T21:31:05.079Z,0.50
2022-09-24T21:33:34.075Z,3.00
2022-09-24T21:36:02.681Z,3.00
2022-09-24T21:38:32.460Z,2.00
2022-09-24T21:41:01.632Z,2.75
2022-09-24T21:43:34.667Z,5.00
2022-09-24T21:46:04.300Z,7.25
2022-09-24T21:48:32.587Z,7.00
2022-09-24T21:51:04.674Z,7.00
2022-09-24T21:53:34.890Z,5.50
2022-09-24T21:56:03.768Z,3.00
2022-09-24T21:58:32.118Z,4.75
2022-09-24T22:01:04.741Z,1.50
2022-09-24T22:03:33.459Z,1.75
2022-09-24T22:06:04.001Z,1.75
2022-09-24T22:08:32.151Z,0.75
2022-09-24T22:11:05.723Z,1.00
2022-09-24T22:13:34.411Z,1.00
2022-09-24T22:16:02.726Z,0.00
2022-09-24T22:18:31.414Z,2.00
2022-09-24T22:20:59.542Z,1.00
2022-09-24T22:23:27.830Z,0.25
2022-09-24T22:25:56.683Z,2.00
2022-09-24T22:28:26.993Z,2.50
2022-09-24T22:30:56.179Z,5.75
2022-09-24T22:33:42.021Z,6.50
2022-09-24T22:36:10.402Z,11.00
2022-09-24T22:38:38.622Z,17.25
2022-09-24T22:41:08.271Z,18.25
2022-09-24T22:43:38.318Z,14.25
2022-09-24T22:46:07.757Z,10.00
2022-09-24T22:48:36.501Z,10.50
2022-09-24T22:51:05.096Z,9.00
2022-09-24T22:53:34.700Z,6.00
2022-09-24T22:56:06.528Z,3.25
2022-09-24T22:58:34.971Z,4.75
2022-09-24T23:01:11.194Z,3.25
2022-09-24T23:03:39.604Z,2.25
2022-09-24T23:06:08.464Z,1.75
2022-09-24T23:08:38.017Z,2.50
2022-09-24T23:11:07.333Z,2.25
2022-09-24T23:13:35.376Z,2.75
2022-09-24T23:16:14.727Z,1.00
2022-09-24T23:18:43.527Z,2.00
2022-09-24T23:21:13.127Z,1.75
2022-09-24T23:23:41.469Z,1.75
2022-09-24T23:26:16.155Z,1.75
2022-09-24T23:28:45.390Z,2.00
2022-09-24T23:31:15.758Z,2.00
2022-09-24T23:33:46.300Z,1.25
2022-09-24T23:36:14.961Z,1.00
2022-09-24T23:38:43.184Z,1.25
2022-09-24T23:41:11.616Z,1.00
2022-09-24T23:43:39.725Z,1.25
2022-09-24T23:46:08.234Z,1.00
2022-09-24T23:48:38.243Z,0.75
2022-09-24T23:51:06.881Z,1.00
2022-09-24T23:53:36.001Z,1.00
2022-09-24T23:56:05.072Z,1.00
2022-09-24T23:58:33.358Z,0.00
